Time;durP1;ratioP1;P1;durP2;ratioP2;P2;SDS_P1;SDS_P2;PMS_P1;PMS_P2;Temp;Humidity;BMP_temperature;BMP_pressure;BME280_temperature;BME280_humidity;BME280_pressure;Samples;Min_cycle;Max_cycle;Signal;HPM_P1;HPM_P2
2022/07/31 00:03:21;;;;;;;3.87;3.67;;;21.90;27.50;;;;;;10431771;28;20230;-73
2022/07/31 00:08:25;;;;;;;3.90;3.60;;;21.90;28.00;;;;;;10432132;28;20378;-73
2022/07/31 00:13:28;;;;;;;3.70;3.40;;;21.80;27.80;;;;;;10424456;28;20229;-73
2022/07/31 00:18:53;;;;;;;3.47;3.17;;;21.80;27.80;;;;;;10425628;28;20237;-73
2022/07/31 00:23:56;;;;;;;3.40;3.20;;;21.70;28.30;;;;;;10427376;28;20236;-73
2022/07/31 00:28:59;;;;;;;3.87;3.57;;;21.70;28.00;;;;;;10417483;28;20225;-73
2022/07/31 00:34:04;;;;;;;4.43;3.30;;;21.60;28.00;;;;;;10414929;28;20224;-73
2022/07/31 00:39:08;;;;;;;4.33;3.57;;;21.60;29.10;;;;;;10428706;28;20602;-73
2022/07/31 00:44:13;;;;;;;4.07;3.73;;;21.60;28.40;;;;;;10439806;28;20230;-74
2022/07/31 00:49:17;;;;;;;4.20;3.80;;;21.50;28.40;;;;;;10428358;28;20233;-73
2022/07/31 00:54:21;;;;;;;4.23;3.93;;;21.40;28.50;;;;;;10424451;28;20234;-73
2022/07/31 00:59:25;;;;;;;3.73;3.50;;;21.20;28.30;;;;;;10429774;28;20232;-74
2022/07/31 01:04:29;;;;;;;3.93;3.63;;;21.10;28.50;;;;;;10427971;28;20251;-73
2022/07/31 01:09:33;;;;;;;3.53;3.33;;;21.10;29.00;;;;;;10426459;28;20232;-73
2022/07/31 01:14:41;;;;;;;3.77;3.20;;;21.00;28.50;;;;;;10431545;28;20234;-73
2022/07/31 01:19:48;;;;;;;3.57;2.83;;;21.00;29.10;;;;;;10426104;28;20229;-73
2022/07/31 01:25:01;;;;;;;3.57;3.27;;;21.00;29.00;;;;;;10432070;28;20221;-73
2022/07/31 01:30:07;;;;;;;3.13;2.93;;;21.00;29.30;;;;;;10429354;28;20302;-73
2022/07/31 01:35:15;;;;;;;3.80;3.60;;;21.00;29.30;;;;;;10424293;28;20231;-73
2022/07/31 01:40:25;;;;;;;3.40;3.20;;;21.00;29.10;;;;;;10430755;28;20225;-73
2022/07/31 01:45:32;;;;;;;3.47;3.27;;;20.90;29.10;;;;;;10423477;28;20229;-73
2022/07/31 01:50:38;;;;;;;4.10;3.80;;;20.90;29.30;;;;;;10428798;28;20243;-73
2022/07/31 01:55:49;;;;;;;4.00;3.70;;;20.90;29.20;;;;;;10432923;28;21141;-73
2022/07/31 02:01:09;;;;;;;4.37;3.77;;;20.80;29.20;;;;;;10428514;28;20232;-73
2022/07/31 02:06:17;;;;;;;4.00;3.70;;;20.80;29.30;;;;;;10421808;28;20225;-73
2022/07/31 02:11:21;;;;;;;3.97;3.77;;;20.70;29.10;;;;;;10430167;28;20226;-73
2022/07/31 02:16:27;;;;;;;3.70;3.40;;;20.70;29.10;;;;;;10420322;28;20229;-73
2022/07/31 02:21:30;;;;;;;4.17;3.87;;;20.60;29.40;;;;;;10423624;28;20232;-73
2022/07/31 02:26:34;;;;;;;4.80;4.40;;;20.60;29.10;;;;;;10428800;28;20231;-73
2022/07/31 02:31:43;;;;;;;4.97;4.27;;;20.60;29.10;;;;;;10425003;28;20591;-73
2022/07/31 02:36:46;;;;;;;4.30;4.03;;;20.50;29.40;;;;;;10426429;28;20246;-73
2022/07/31 02:41:52;;;;;;;4.23;3.93;;;20.30;29.00;;;;;;10427625;28;20725;-74
2022/07/31 02:46:56;;;;;;;3.73;3.43;;;20.20;29.30;;;;;;10429596;28;20217;-73
2022/07/31 02:52:00;;;;;;;4.20;3.83;;;20.20;29.50;;;;;;10416573;28;20233;-73
2022/07/31 02:57:04;;;;;;;4.27;3.97;;;20.10;29.40;;;;;;10384507;28;20315;-73
2022/07/31 03:02:08;;;;;;;3.63;3.43;;;20.00;29.40;;;;;;10426615;28;20231;-73
2022/07/31 03:07:11;;;;;;;4.43;4.13;;;20.00;29.80;;;;;;10435173;28;20217;-73
2022/07/31 03:12:15;;;;;;;4.00;3.70;;;19.90;29.70;;;;;;10436184;28;20695;-73
2022/07/31 03:17:20;;;;;;;3.90;3.70;;;19.90;29.70;;;;;;10424702;28;20236;-73
2022/07/31 03:22:23;;;;;;;4.43;3.97;;;19.90;30.00;;;;;;10434643;28;20698;-73
2022/07/31 03:27:27;;;;;;;4.77;4.40;;;19.80;29.90;;;;;;10429509;28;20235;-73
2022/07/31 03:32:31;;;;;;;4.50;4.20;;;19.80;30.00;;;;;;10428007;28;20240;-73
2022/07/31 03:37:35;;;;;;;4.80;4.43;;;19.60;30.60;;;;;;10433519;28;20240;-73
2022/07/31 03:42:38;;;;;;;4.40;4.00;;;19.50;30.30;;;;;;10430747;28;20231;-73
2022/07/31 03:47:43;;;;;;;5.10;4.70;;;19.30;30.60;;;;;;10426998;28;20221;-73
2022/07/31 03:52:47;;;;;;;4.60;4.30;;;19.30;31.70;;;;;;10424339;28;20229;-73
2022/07/31 03:57:51;;;;;;;4.27;3.97;;;19.20;31.20;;;;;;10430912;28;20229;-74
2022/07/31 04:02:58;;;;;;;4.60;4.30;;;19.20;31.20;;;;;;10429657;28;20222;-73
2022/07/31 04:08:02;;;;;;;4.93;4.60;;;19.20;32.30;;;;;;10427302;28;20716;-74
2022/07/31 04:13:05;;;;;;;4.23;3.83;;;19.20;31.90;;;;;;10426840;28;20221;-74
2022/07/31 04:18:10;;;;;;;4.23;3.93;;;19.10;31.70;;;;;;10428087;28;20240;-73
2022/07/31 04:23:13;;;;;;;4.17;3.87;;;19.10;32.50;;;;;;10435127;28;20753;-74
2022/07/31 04:28:16;;;;;;;5.17;4.33;;;19.00;32.00;;;;;;10422851;28;20308;-74
2022/07/31 04:33:21;;;;;;;4.37;4.07;;;19.00;32.30;;;;;;10427599;28;20237;-73
2022/07/31 04:38:25;;;;;;;4.37;4.00;;;19.00;32.80;;;;;;10428377;28;20237;-73
2022/07/31 04:43:28;;;;;;;4.63;4.33;;;19.00;32.50;;;;;;10425257;28;20241;-74
2022/07/31 04:48:32;;;;;;;4.50;4.20;;;19.10;32.70;;;;;;10431961;28;20249;-74
2022/07/31 04:53:35;;;;;;;5.23;4.90;;;19.10;33.60;;;;;;10430049;28;20236;-74
2022/07/31 04:58:40;;;;;;;4.30;4.00;;;19.20;33.20;;;;;;10433619;28;21011;-74
2022/07/31 05:03:45;;;;;;;4.17;3.87;;;19.20;33.10;;;;;;10421268;28;20225;-73
2022/07/31 05:08:48;;;;;;;5.27;4.10;;;19.30;33.80;;;;;;10422640;28;20233;-74
2022/07/31 05:13:52;;;;;;;5.07;4.67;;;19.30;33.30;;;;;;10429448;28;20221;-74
2022/07/31 05:18:56;;;;;;;4.73;4.23;;;19.30;33.40;;;;;;10424708;28;20229;-74
2022/07/31 05:24:01;;;;;;;4.83;4.50;;;19.40;34.10;;;;;;10431000;28;20235;-73
2022/07/31 05:29:05;;;;;;;4.90;4.50;;;19.40;34.00;;;;;;10439682;28;20228;-73
2022/07/31 05:34:09;;;;;;;5.37;4.97;;;19.50;34.00;;;;;;10429795;28;20224;-74
2022/07/31 05:39:12;;;;;;;5.20;4.80;;;19.60;34.80;;;;;;10428293;28;20227;-74
2022/07/31 05:44:15;;;;;;;5.30;4.90;;;19.80;34.10;;;;;;10431940;28;20615;-74
2022/07/31 05:49:22;;;;;;;5.40;4.90;;;19.90;34.30;;;;;;10421742;28;20229;-75
2022/07/31 05:54:26;;;;;;;5.30;4.90;;;20.00;35.10;;;;;;10425366;28;20257;-75
2022/07/31 05:59:29;;;;;;;5.73;5.33;;;20.10;34.70;;;;;;10427046;28;20252;-74
2022/07/31 06:04:33;;;;;;;5.23;4.83;;;20.30;34.90;;;;;;10423486;28;20229;-74
2022/07/31 06:09:37;;;;;;;5.07;4.77;;;20.30;35.60;;;;;;10426750;28;20225;-74
2022/07/31 06:14:40;;;;;;;5.40;5.03;;;20.50;35.10;;;;;;10426274;28;20294;-74
2022/07/31 06:19:44;;;;;;;6.00;5.30;;;20.60;35.00;;;;;;10424538;28;20235;-74
2022/07/31 06:24:47;;;;;;;5.27;4.87;;;20.70;35.70;;;;;;10427854;28;20229;-74
2022/07/31 06:29:51;;;;;;;5.50;5.10;;;20.80;35.10;;;;;;10438709;28;20586;-75
2022/07/31 06:34:55;;;;;;;5.40;5.00;;;20.90;35.10;;;;;;10438250;28;20229;-74
2022/07/31 06:39:59;;;;;;;5.50;4.67;;;21.00;35.60;;;;;;10431305;28;20233;-74
2022/07/31 06:45:02;;;;;;;4.83;4.47;;;21.10;35.10;;;;;;10440754;28;20311;-74
2022/07/31 06:50:08;;;;;;;5.03;4.63;;;21.20;34.90;;;;;;10433486;28;20225;-74
2022/07/31 06:55:11;;;;;;;4.80;4.40;;;21.30;35.90;;;;;;10441949;28;20571;-74
2022/07/31 07:00:15;;;;;;;5.67;5.27;;;21.50;35.20;;;;;;10446236;28;20250;-74
2022/07/31 07:05:24;;;;;;;5.30;4.90;;;21.60;35.30;;;;;;10432804;28;20225;-74
2022/07/31 07:10:27;;;;;;;6.77;5.13;;;21.80;36.00;;;;;;10434686;28;20842;-74
2022/07/31 07:15:30;;;;;;;5.77;5.27;;;21.90;35.30;;;;;;10439738;28;20235;-74
2022/07/31 07:20:35;;;;;;;5.63;5.23;;;22.00;35.20;;;;;;10433142;28;20229;-74
2022/07/31 07:25:39;;;;;;;5.83;5.30;;;22.20;35.80;;;;;;10427125;28;20231;-74
2022/07/31 07:30:43;;;;;;;5.37;4.90;;;22.30;35.50;;;;;;10444012;28;20225;-75
2022/07/31 07:35:47;;;;;;;5.90;5.50;;;22.50;35.50;;;;;;10439711;28;20235;-75
2022/07/31 07:40:51;;;;;;;5.60;5.20;;;22.60;35.50;;;;;;10432216;28;20225;-75
2022/07/31 07:45:54;;;;;;;5.73;5.20;;;22.80;35.30;;;;;;10432253;28;20225;-74
2022/07/31 07:50:58;;;;;;;5.10;4.70;;;22.90;35.20;;;;;;10440720;28;20234;-74
2022/07/31 07:56:02;;;;;;;4.47;4.17;;;23.10;35.00;;;;;;10437572;28;20225;-74
2022/07/31 08:01:06;;;;;;;6.87;4.27;;;23.20;34.60;;;;;;10442850;28;20569;-74
2022/07/31 08:06:10;;;;;;;4.30;4.00;;;23.40;34.20;;;;;;10442809;28;20235;-74
2022/07/31 08:11:14;;;;;;;4.43;4.07;;;23.50;33.80;;;;;;10442011;28;20247;-74
2022/07/31 08:16:19;;;;;;;3.90;3.60;;;23.70;33.80;;;;;;10435650;28;20221;-74
2022/07/31 08:21:24;;;;;;;5.40;3.80;;;23.90;33.80;;;;;;10445467;28;20236;-75
2022/07/31 08:27:22;;;;;;;4.17;3.80;;;24.10;33.10;;;;;;10442429;28;20237;-74
2022/07/31 08:31:51;;;;;;;4.00;3.70;;;24.30;33.10;;;;;;10440680;28;20228;-74
2022/07/31 08:36:56;;;;;;;3.73;3.50;;;24.60;33.10;;;;;;10434139;28;20223;-74
2022/07/31 08:41:59;;;;;;;5.67;3.70;;;24.80;33.30;;;;;;10417292;28;20229;-75
2022/07/31 08:47:06;;;;;;;3.93;3.70;;;25.10;32.60;;;;;;10430557;28;20224;-74
2022/07/31 08:52:15;;;;;;;3.67;3.37;;;25.30;32.20;;;;;;10450642;28;20252;-75
2022/07/31 08:57:19;;;;;;;3.70;3.40;;;25.60;31.50;;;;;;10391606;28;20248;-75
2022/07/31 09:02:22;;;;;;;2.93;2.73;;;25.80;30.70;;;;;;10393849;28;20233;-76
2022/07/31 09:07:27;;;;;;;3.23;3.03;;;25.90;30.80;;;;;;10397124;28;20235;-75
2022/07/31 09:12:32;;;;;;;3.67;3.37;;;26.10;30.40;;;;;;10406257;28;20235;-74
2022/07/31 09:17:36;;;;;;;2.77;2.63;;;26.40;30.30;;;;;;10406047;28;20232;-75
2022/07/31 09:22:41;;;;;;;2.70;2.50;;;26.60;29.50;;;;;;10408460;28;20735;-74
2022/07/31 09:27:47;;;;;;;3.10;2.80;;;26.90;29.50;;;;;;10423633;28;20231;-74
2022/07/31 09:32:50;;;;;;;2.87;2.67;;;27.20;27.60;;;;;;10406058;28;20233;-74
2022/07/31 09:37:54;;;;;;;3.00;2.80;;;27.50;27.80;;;;;;10405768;28;20233;-74
2022/07/31 09:42:58;;;;;;;3.00;2.80;;;27.60;27.20;;;;;;10382707;28;20241;-74
2022/07/31 09:48:07;;;;;;;3.07;2.70;;;27.80;27.40;;;;;;10364491;28;20234;-74
2022/07/31 09:53:15;;;;;;;2.70;2.50;;;28.00;27.20;;;;;;10364339;28;20226;-74
2022/07/31 09:58:19;;;;;;;2.57;2.37;;;28.20;26.60;;;;;;10364167;28;20240;-74
2022/07/31 10:03:24;;;;;;;2.83;2.53;;;28.50;26.40;;;;;;10364096;28;20241;-74
2022/07/31 10:08:32;;;;;;;2.30;2.10;;;28.60;25.80;;;;;;10364148;28;21090;-74
2022/07/31 10:13:38;;;;;;;2.30;2.10;;;28.80;24.90;;;;;;10366510;28;20230;-74
2022/07/31 10:18:49;;;;;;;4.17;1.90;;;28.90;24.60;;;;;;10371948;28;20591;-74
2022/07/31 10:23:55;;;;;;;2.83;2.10;;;29.10;23.20;;;;;;10372058;28;20236;-74
2022/07/31 10:28:58;;;;;;;2.23;2.03;;;29.20;23.80;;;;;;10389095;28;20239;-74
2022/07/31 10:34:02;;;;;;;2.40;2.20;;;29.30;24.00;;;;;;10453643;28;20747;-73
2022/07/31 10:39:17;;;;;;;2.50;2.30;;;29.40;23.50;;;;;;10453369;28;20225;-73
2022/07/31 10:44:31;;;;;;;2.53;2.30;;;29.40;22.60;;;;;;10454562;28;20332;-74
2022/07/31 10:49:42;;;;;;;2.43;2.23;;;29.50;22.50;;;;;;10455888;28;20307;-73
2022/07/31 10:54:48;;;;;;;2.53;2.33;;;29.60;22.10;;;;;;10455754;28;20744;-74
2022/07/31 10:59:51;;;;;;;2.80;2.50;;;29.70;21.20;;;;;;10453077;28;20254;-73
2022/07/31 11:05:05;;;;;;;2.33;2.13;;;29.70;22.20;;;;;;10447055;28;20608;-73
2022/07/31 11:10:12;;;;;;;2.10;2.00;;;29.80;22.20;;;;;;10447614;28;20223;-73
2022/07/31 11:15:23;;;;;;;2.50;2.30;;;29.80;20.90;;;;;;10447891;28;20229;-73
2022/07/31 11:20:29;;;;;;;2.57;2.37;;;29.90;19.90;;;;;;10449175;28;20326;-73
2022/07/31 11:25:35;;;;;;;2.50;2.30;;;29.90;21.10;;;;;;10447135;28;20225;-73
2022/07/31 11:30:49;;;;;;;2.43;2.33;;;29.90;20.20;;;;;;10447541;28;20231;-73
2022/07/31 11:35:52;;;;;;;3.70;2.30;;;30.00;21.10;;;;;;10447664;28;20704;-73
2022/07/31 11:40:57;;;;;;;2.50;2.30;;;30.20;21.20;;;;;;10448462;28;20228;-73
2022/07/31 11:46:01;;;;;;;2.10;2.00;;;30.30;20.90;;;;;;10448904;28;20225;-73
2022/07/31 11:51:06;;;;;;;2.27;2.07;;;30.40;20.80;;;;;;10445163;28;20240;-73
2022/07/31 11:56:11;;;;;;;2.00;1.90;;;30.40;20.80;;;;;;10444394;28;20240;-73
2022/07/31 12:01:15;;;;;;;2.27;2.13;;;30.40;20.00;;;;;;10441392;28;20229;-73
2022/07/31 12:06:20;;;;;;;1.80;1.70;;;30.30;20.40;;;;;;10436442;28;20230;-74
2022/07/31 12:11:25;;;;;;;2.27;2.07;;;30.30;19.70;;;;;;10425414;28;20324;-75
2022/07/31 12:16:39;;;;;;;2.23;2.00;;;30.20;19.50;;;;;;10427858;28;20224;-75
2022/07/31 12:21:42;;;;;;;2.20;2.00;;;30.00;19.50;;;;;;10423803;28;20221;-76
2022/07/31 12:26:51;;;;;;;2.07;1.87;;;30.00;20.10;;;;;;10426605;28;20635;-75
2022/07/31 12:31:56;;;;;;;2.10;1.90;;;30.00;18.50;;;;;;10407330;28;20885;-75
2022/07/31 12:37:05;;;;;;;2.43;2.00;;;30.00;20.10;;;;;;10424899;28;21138;-75
2022/07/31 12:42:20;;;;;;;2.40;2.20;;;30.00;19.10;;;;;;10440293;28;20308;-75
2022/07/31 12:47:34;;;;;;;5.60;2.10;;;30.00;19.70;;;;;;10441059;28;20229;-75
2022/07/31 12:52:38;;;;;;;2.63;1.80;;;30.00;19.00;;;;;;10441844;28;20237;-74
2022/07/31 12:57:42;;;;;;;2.80;2.17;;;30.00;19.40;;;;;;10448853;28;20225;-75
2022/07/31 13:02:54;;;;;;;1.93;1.83;;;30.00;18.60;;;;;;10450977;28;20612;-75
2022/07/31 13:07:58;;;;;;;1.90;1.80;;;30.00;18.70;;;;;;10422962;28;20245;-75
2022/07/31 13:13:02;;;;;;;2.67;2.13;;;30.00;18.90;;;;;;10410119;28;20263;-73
2022/07/31 13:18:07;;;;;;;2.17;1.97;;;30.00;18.30;;;;;;10424114;28;20217;-74
2022/07/31 13:23:10;;;;;;;1.80;1.70;;;30.10;19.10;;;;;;10433774;28;20229;-74
2022/07/31 13:28:14;;;;;;;1.77;1.67;;;30.20;19.20;;;;;;10437228;28;20232;-74
2022/07/31 13:33:18;;;;;;;1.83;1.73;;;30.30;18.30;;;;;;10435947;28;20608;-74
2022/07/31 13:38:21;;;;;;;1.60;1.50;;;30.50;18.30;;;;;;10436630;28;20232;-74
2022/07/31 13:43:25;;;;;;;1.73;1.50;;;30.60;18.20;;;;;;10407370;28;20233;-74
2022/07/31 13:48:29;;;;;;;1.60;1.50;;;30.60;17.40;;;;;;10396006;28;20225;-74
2022/07/31 13:53:32;;;;;;;1.57;1.47;;;30.70;17.90;;;;;;10427432;28;20593;-74
2022/07/31 13:58:37;;;;;;;1.40;1.40;;;30.80;17.60;;;;;;10444285;28;20239;-74
2022/07/31 14:03:40;;;;;;;1.50;1.40;;;30.90;16.30;;;;;;10445200;28;20236;-74
2022/07/31 14:08:44;;;;;;;1.80;1.70;;;31.00;17.20;;;;;;10433383;28;20217;-73
2022/07/31 14:13:53;;;;;;;1.83;1.73;;;31.10;16.80;;;;;;10437674;28;20633;-74
2022/07/31 14:18:59;;;;;;;1.50;1.40;;;31.00;16.20;;;;;;10404371;28;20312;-73
2022/07/31 14:24:03;;;;;;;1.80;1.70;;;31.00;16.90;;;;;;10445728;28;20235;-74
2022/07/31 14:29:08;;;;;;;1.80;1.70;;;31.00;16.90;;;;;;10445648;28;20247;-73
2022/07/31 14:34:12;;;;;;;2.13;1.90;;;31.00;16.60;;;;;;10445719;28;20244;-73
2022/07/31 14:39:15;;;;;;;1.80;1.70;;;31.00;16.80;;;;;;10445438;28;20304;-73
2022/07/31 14:44:23;;;;;;;1.90;1.80;;;31.00;16.70;;;;;;10444835;28;20244;-73
2022/07/31 14:49:31;;;;;;;1.80;1.70;;;31.20;16.50;;;;;;10445413;28;20312;-74
2022/07/31 14:54:57;;;;;;;1.93;1.73;;;31.20;16.50;;;;;;10442457;22;20596;-80
2022/07/31 15:00:02;;;;;;;1.90;1.80;;;31.20;16.20;;;;;;10442218;28;20304;-79
2022/07/31 15:05:11;;;;;;;1.83;1.73;;;31.10;15.70;;;;;;10445372;28;20770;-79
2022/07/31 15:10:34;;;;;;;1.67;1.57;;;31.10;16.50;;;;;;10449269;28;20220;-79
2022/07/31 15:15:39;;;;;;;2.33;2.20;;;31.10;16.10;;;;;;10445493;28;20279;-74
2022/07/31 15:20:42;;;;;;;15.80;14.27;;;31.20;16.20;;;;;;10456787;28;20704;-75
2022/07/31 15:25:45;;;;;;;4.80;4.50;;;31.20;16.30;;;;;;10437243;28;20304;-75
2022/07/31 15:30:50;;;;;;;3.10;2.80;;;31.30;16.80;;;;;;10448764;28;20265;-80
2022/07/31 15:35:53;;;;;;;2.07;1.97;;;31.40;15.90;;;;;;10446848;28;21257;-79
2022/07/31 15:40:56;;;;;;;1.90;1.70;;;31.40;15.80;;;;;;10445587;28;20820;-80
2022/07/31 15:46:06;;;;;;;1.70;1.60;;;31.50;15.50;;;;;;10431628;28;20229;-79
2022/07/31 15:51:10;;;;;;;1.83;1.73;;;31.40;15.10;;;;;;10434444;28;20590;-77
2022/07/31 15:56:13;;;;;;;1.90;1.80;;;31.40;15.40;;;;;;10422269;28;20236;-77
2022/07/31 16:01:18;;;;;;;1.60;1.50;;;31.40;15.70;;;;;;10427632;28;20732;-77
2022/07/31 16:06:21;;;;;;;1.53;1.43;;;31.40;15.70;;;;;;10427300;28;20624;-77
2022/07/31 16:11:34;;;;;;;1.60;1.50;;;31.30;15.30;;;;;;10423102;28;20233;-77
2022/07/31 16:16:58;;;;;;;1.70;1.60;;;31.30;15.40;;;;;;10430869;28;20224;-77
2022/07/31 16:22:01;;;;;;;1.63;1.53;;;31.30;15.20;;;;;;10435992;28;20232;-77
2022/07/31 16:27:05;;;;;;;1.63;1.53;;;31.20;15.50;;;;;;10436493;28;20229;-77
2022/07/31 16:32:10;;;;;;;1.60;1.50;;;31.20;15.50;;;;;;10436243;28;20309;-77
2022/07/31 16:37:13;;;;;;;1.60;1.50;;;31.20;15.30;;;;;;10436913;28;20221;-77
2022/07/31 16:42:16;;;;;;;1.40;1.30;;;31.20;15.10;;;;;;10433816;28;20588;-77
2022/07/31 16:47:21;;;;;;;1.60;1.50;;;31.20;15.30;;;;;;10435677;28;20233;-77
2022/07/31 16:52:44;;;;;;;1.50;1.40;;;31.10;15.00;;;;;;10434832;28;20237;-77
2022/07/31 16:57:47;;;;;;;3.10;1.60;;;31.10;15.30;;;;;;10434692;28;20213;-77
2022/07/31 17:02:52;;;;;;;2.50;1.60;;;31.00;15.10;;;;;;10439774;28;20716;-79
2022/07/31 17:07:55;;;;;;;1.60;1.50;;;30.90;15.00;;;;;;10437702;28;20228;-81
2022/07/31 17:12:59;;;;;;;1.40;1.30;;;30.90;15.30;;;;;;10436045;28;20225;-77
2022/07/31 17:18:04;;;;;;;1.70;1.60;;;30.90;15.40;;;;;;10425296;28;20213;-77
2022/07/31 17:23:07;;;;;;;1.50;1.40;;;31.00;15.20;;;;;;10420494;28;20224;-77
2022/07/31 17:28:10;;;;;;;1.53;1.43;;;31.10;15.40;;;;;;10423196;28;20233;-77
2022/07/31 17:33:18;;;;;;;1.90;1.80;;;31.20;15.20;;;;;;10424633;28;20226;-78
2022/07/31 17:38:41;;;;;;;2.13;1.53;;;31.30;15.00;;;;;;10427645;28;20221;-77
2022/07/31 17:43:45;;;;;;;1.70;1.60;;;31.30;15.10;;;;;;10434924;28;20724;-78
2022/07/31 17:48:56;;;;;;;1.70;1.60;;;31.40;15.20;;;;;;10433942;28;20224;-77
2022/07/31 17:54:00;;;;;;;1.70;1.60;;;31.40;15.00;;;;;;10433504;28;20286;-78
2022/07/31 17:59:04;;;;;;;1.77;1.63;;;31.50;15.30;;;;;;10433327;28;20686;-77
2022/07/31 18:04:09;;;;;;;1.40;1.40;;;31.50;15.10;;;;;;10432006;28;20592;-77
2022/07/31 18:09:19;;;;;;;1.33;1.33;;;31.40;15.00;;;;;;10433073;28;20220;-77
2022/07/31 18:14:23;;;;;;;1.50;1.40;;;31.40;15.30;;;;;;10433166;28;20233;-75
2022/07/31 18:19:28;;;;;;;1.67;1.57;;;31.40;15.20;;;;;;10442403;28;20220;-75
2022/07/31 18:24:31;;;;;;;1.70;1.60;;;31.40;16.00;;;;;;10439676;28;20626;-74
2022/07/31 18:29:34;;;;;;;1.73;1.63;;;31.30;15.50;;;;;;10441200;28;20250;-74
2022/07/31 18:34:39;;;;;;;1.80;1.70;;;31.30;15.60;;;;;;10441314;28;20229;-74
2022/07/31 18:39:43;;;;;;;2.30;1.70;;;31.30;15.60;;;;;;10448563;28;20225;-76
2022/07/31 18:44:51;;;;;;;1.67;1.57;;;31.20;15.70;;;;;;10445255;28;20296;-75
2022/07/31 18:49:55;;;;;;;1.67;1.57;;;31.10;16.20;;;;;;10445528;28;20217;-74
2022/07/31 18:55:19;;;;;;;1.50;1.50;;;31.00;16.40;;;;;;10447016;28;20237;-75
2022/07/31 19:00:23;;;;;;;1.97;1.70;;;30.90;16.40;;;;;;10447857;28;20256;-75
2022/07/31 19:05:30;;;;;;;2.00;1.80;;;30.80;16.40;;;;;;10442396;28;20302;-76
2022/07/31 19:10:35;;;;;;;1.93;1.50;;;30.70;16.80;;;;;;10449057;28;20270;-75
2022/07/31 19:15:38;;;;;;;1.83;1.73;;;30.60;16.90;;;;;;10449328;28;20664;-75
2022/07/31 19:20:44;;;;;;;1.70;1.60;;;30.50;17.10;;;;;;10443629;28;20997;-75
2022/07/31 19:26:08;;;;;;;1.70;1.60;;;30.50;17.40;;;;;;10446503;28;20240;-75
2022/07/31 19:31:13;;;;;;;1.90;1.80;;;30.40;17.50;;;;;;10432724;28;20227;-75
2022/07/31 19:36:17;;;;;;;2.07;1.87;;;30.30;17.70;;;;;;10442162;28;20263;-75
2022/07/31 19:41:21;;;;;;;2.37;2.23;;;30.30;17.90;;;;;;10447787;28;20233;-75
2022/07/31 19:46:24;;;;;;;2.10;1.70;;;30.10;17.80;;;;;;10447991;28;20696;-75
2022/07/31 19:51:30;;;;;;;2.63;1.80;;;29.80;17.80;;;;;;10450343;28;20239;-75
2022/07/31 19:56:33;;;;;;;1.90;1.80;;;29.50;18.40;;;;;;10438443;28;20247;-75
2022/07/31 20:01:36;;;;;;;1.80;1.70;;;29.20;19.00;;;;;;10439038;28;20225;-75
2022/07/31 20:06:41;;;;;;;1.93;1.83;;;28.90;18.80;;;;;;10444081;28;20228;-75
2022/07/31 20:11:45;;;;;;;3.40;1.93;;;28.80;19.30;;;;;;10440151;28;20231;-75
2022/07/31 20:16:49;;;;;;;2.07;1.70;;;28.60;19.10;;;;;;10437754;28;20225;-75
2022/07/31 20:21:53;;;;;;;2.20;1.97;;;28.40;19.50;;;;;;10443917;28;20224;-75
2022/07/31 20:26:57;;;;;;;2.87;2.10;;;28.20;20.20;;;;;;10437437;28;20708;-75
2022/07/31 20:32:00;;;;;;;4.63;2.40;;;28.10;20.10;;;;;;10439471;28;20227;-74
2022/07/31 20:37:05;;;;;;;2.00;1.90;;;27.90;20.00;;;;;;10435798;28;20708;-74
2022/07/31 20:42:08;;;;;;;2.37;2.20;;;27.80;20.70;;;;;;10438758;28;20968;-75
2022/07/31 20:47:11;;;;;;;2.27;2.10;;;27.60;20.70;;;;;;10438877;28;20231;-75
2022/07/31 20:52:16;;;;;;;2.57;2.10;;;27.40;21.00;;;;;;10438307;28;20251;-74
2022/07/31 20:57:19;;;;;;;2.00;1.90;;;27.30;21.60;;;;;;10438469;28;20229;-74
2022/07/31 21:02:22;;;;;;;2.30;1.83;;;27.20;21.40;;;;;;10434112;28;20244;-75
2022/07/31 21:07:27;;;;;;;3.10;2.00;;;27.20;21.60;;;;;;10435923;28;20243;-75
2022/07/31 21:12:30;;;;;;;2.63;2.10;;;27.10;22.10;;;;;;10440715;28;20641;-74
2022/07/31 21:17:33;;;;;;;2.13;1.90;;;27.00;21.90;;;;;;10436911;28;20231;-75
2022/07/31 21:22:40;;;;;;;2.00;1.90;;;27.00;22.20;;;;;;10436830;28;20240;-75
2022/07/31 21:27:45;;;;;;;2.30;2.10;;;26.90;22.50;;;;;;10432794;28;20232;-74
2022/07/31 21:32:48;;;;;;;2.17;2.00;;;26.80;22.40;;;;;;10449272;28;20260;-74
2022/07/31 21:37:53;;;;;;;2.70;2.00;;;26.70;22.20;;;;;;10433563;28;20225;-75
2022/07/31 21:43:00;;;;;;;2.20;2.00;;;26.60;22.80;;;;;;10441870;28;20248;-75
2022/07/31 21:48:10;;;;;;;2.00;1.90;;;26.50;22.70;;;;;;10440282;28;20221;-75
2022/07/31 21:53:14;;;;;;;1.90;1.80;;;26.50;23.40;;;;;;10435514;28;20239;-75
2022/07/31 21:58:18;;;;;;;2.60;2.07;;;26.50;23.30;;;;;;10443623;28;20217;-75
2022/07/31 22:03:21;;;;;;;2.30;2.10;;;26.50;23.00;;;;;;10431676;28;20232;-75
2022/07/31 22:08:26;;;;;;;2.47;2.27;;;26.50;23.00;;;;;;10443051;28;20228;-74
2022/07/31 22:13:29;;;;;;;2.30;2.10;;;26.40;23.60;;;;;;10442011;28;20229;-74
2022/07/31 22:18:34;;;;;;;3.23;2.10;;;26.30;23.30;;;;;;10436955;28;20229;-74
2022/07/31 22:23:39;;;;;;;2.70;2.00;;;26.30;23.60;;;;;;10438430;28;20750;-75
2022/07/31 22:28:43;;;;;;;2.10;2.00;;;26.10;23.90;;;;;;10428554;28;20588;-75
2022/07/31 22:33:47;;;;;;;2.10;1.90;;;26.10;23.80;;;;;;10443814;28;20235;-75
2022/07/31 22:38:52;;;;;;;2.00;1.90;;;26.00;23.80;;;;;;10433901;28;20239;-75
2022/07/31 22:43:55;;;;;;;2.27;2.10;;;25.90;24.20;;;;;;10424876;28;20243;-75
2022/07/31 22:49:16;;;;;;;2.03;1.93;;;25.80;24.10;;;;;;10432675;28;20304;-75
2022/07/31 22:54:21;;;;;;;2.20;2.00;;;25.80;24.20;;;;;;10427816;28;20288;-75
2022/07/31 22:59:24;;;;;;;2.03;1.93;;;25.80;24.60;;;;;;10424399;28;20221;-75
2022/07/31 23:04:27;;;;;;;1.93;1.83;;;25.80;24.40;;;;;;10442890;28;20233;-75
2022/07/31 23:09:32;;;;;;;2.03;1.93;;;25.80;24.50;;;;;;10443138;28;20233;-75
2022/07/31 23:14:35;;;;;;;2.20;2.10;;;25.70;24.70;;;;;;10434724;28;20255;-75
2022/07/31 23:19:38;;;;;;;2.47;2.10;;;25.70;24.50;;;;;;10443071;28;20227;-75
2022/07/31 23:24:43;;;;;;;2.20;2.10;;;25.70;24.60;;;;;;10434162;28;20225;-75
2022/07/31 23:29:46;;;;;;;2.50;1.90;;;25.70;24.80;;;;;;10444294;28;20225;-74
2022/07/31 23:34:49;;;;;;;2.40;2.20;;;25.90;24.70;;;;;;10449953;28;20237;-75
2022/07/31 23:39:54;;;;;;;2.40;2.20;;;25.90;24.70;;;;;;10441804;28;20221;-75
2022/07/31 23:44:57;;;;;;;2.40;2.00;;;26.00;24.80;;;;;;10444169;28;20229;-75
2022/07/31 23:50:02;;;;;;;2.50;2.23;;;26.10;24.70;;;;;;10446945;28;20224;-75
2022/07/31 23:55:07;;;;;;;3.17;2.40;;;26.20;24.70;;;;;;10444980;28;20225;-75
